createdAt,value
2018-06-05T00:00:12.990Z,37.39
2018-06-05T00:02:41.648Z,37.15
2018-06-05T00:05:10.232Z,36.60
2018-06-05T00:07:38.814Z,37.30
2018-06-05T00:10:07.500Z,37.76
2018-06-05T00:12:35.994Z,37.28
2018-06-05T00:15:04.665Z,37.70
2018-06-05T00:17:33.172Z,37.61
2018-06-05T00:20:02.387Z,38.09
2018-06-05T00:22:31.066Z,37.87
2018-06-05T00:24:59.678Z,38.02
2018-06-05T00:27:28.297Z,37.79
2018-06-05T00:29:56.858Z,37.34
2018-06-05T00:32:25.513Z,37.78
2018-06-05T00:34:54.145Z,37.74
2018-06-05T00:37:22.680Z,38.18
2018-06-05T00:39:51.311Z,37.78
2018-06-05T00:42:19.837Z,37.89
2018-06-05T00:44:48.389Z,37.75
2018-06-05T00:47:16.974Z,37.25
2018-06-05T00:49:45.566Z,38.19
2018-06-05T00:52:14.170Z,37.66
2018-06-05T00:54:42.808Z,38.21
2018-06-05T00:57:11.493Z,37.68
2018-06-05T00:59:40.079Z,37.82
2018-06-05T01:02:08.765Z,38.30
2018-06-05T01:04:37.398Z,38.37
2018-06-05T01:07:06.157Z,38.50
2018-06-05T01:09:34.817Z,38.86
2018-06-05T01:12:03.438Z,38.48
2018-06-05T01:14:32.030Z,38.44
2018-06-05T01:17:00.669Z,38.11
2018-06-05T01:19:29.199Z,38.24
2018-06-05T01:21:57.770Z,37.98
2018-06-05T01:24:26.367Z,37.73
2018-06-05T01:26:54.999Z,38.03
2018-06-05T01:29:23.990Z,38.46
2018-06-05T01:31:52.501Z,38.07
2018-06-05T01:34:21.260Z,39.04
2018-06-05T01:36:50.470Z,38.06
2018-06-05T01:39:19.039Z,37.88
2018-06-05T01:41:47.722Z,38.74
2018-06-05T01:44:16.353Z,37.65
2018-06-05T01:46:44.979Z,37.66
2018-06-05T01:49:13.476Z,37.55
2018-06-05T01:51:41.955Z,37.57
2018-06-05T01:54:10.640Z,38.24
2018-06-05T01:56:39.222Z,37.89
2018-06-05T01:59:07.708Z,37.93
2018-06-05T02:01:36.359Z,37.56
2018-06-05T02:04:04.971Z,37.73
2018-06-05T02:06:33.473Z,37.70
2018-06-05T02:09:02.412Z,36.78
2018-06-05T02:11:30.924Z,36.90
2018-06-05T02:14:00.122Z,36.49
2018-06-05T02:16:28.705Z,36.76
2018-06-05T02:18:57.390Z,37.17
2018-06-05T02:21:26.425Z,37.86
2018-06-05T02:23:55.082Z,38.00
2018-06-05T02:26:24.274Z,38.27
2018-06-05T02:28:52.830Z,38.27
2018-06-05T02:31:21.432Z,38.62
2018-06-05T02:33:49.930Z,38.52
2018-06-05T02:36:18.555Z,39.02
2018-06-05T02:38:47.179Z,39.17
2018-06-05T02:41:15.686Z,38.90
2018-06-05T02:43:44.286Z,39.45
2018-06-05T02:46:12.945Z,39.38
2018-06-05T02:48:41.555Z,39.46
2018-06-05T02:51:10.096Z,40.19
2018-06-05T02:53:38.882Z,40.17
2018-06-05T02:56:07.553Z,40.34
2018-06-05T02:58:36.149Z,40.56
2018-06-05T03:01:04.835Z,40.80
2018-06-05T03:03:33.418Z,41.17
2018-06-05T03:06:01.920Z,40.88
2018-06-05T03:08:30.487Z,41.48
2018-06-05T03:10:59.167Z,41.52
2018-06-05T03:13:27.675Z,41.78
2018-06-05T03:15:56.292Z,41.53
2018-06-05T03:18:24.916Z,42.04
2018-06-05T03:20:53.602Z,41.96
2018-06-05T03:23:22.126Z,42.48
2018-06-05T03:25:50.624Z,42.26
2018-06-05T03:28:19.259Z,42.53
2018-06-05T03:30:48.160Z,42.75
2018-06-05T03:33:16.863Z,42.77
2018-06-05T03:35:45.404Z,43.25
2018-06-05T03:38:13.956Z,42.51
2018-06-05T03:40:43.063Z,42.88
2018-06-05T03:43:11.667Z,42.28
2018-06-05T03:45:40.350Z,42.14
2018-06-05T03:48:09.036Z,42.25
2018-06-05T03:50:37.724Z,42.56
2018-06-05T03:53:06.349Z,43.08
2018-06-05T03:55:34.989Z,42.93
2018-06-05T03:58:03.625Z,42.65
2018-06-05T04:00:32.259Z,42.88
2018-06-05T04:03:00.751Z,43.46
2018-06-05T04:05:29.526Z,42.91
2018-06-05T04:07:58.186Z,43.27
2018-06-05T04:10:27.386Z,43.27
2018-06-05T04:12:56.605Z,42.97
2018-06-05T04:15:25.742Z,43.14
2018-06-05T04:17:54.403Z,43.19
2018-06-05T04:20:23.030Z,42.90
2018-06-05T04:22:51.916Z,43.75
2018-06-05T04:25:20.548Z,43.54
2018-06-05T04:27:49.119Z,43.41
2018-06-05T04:30:17.623Z,43.05
2018-06-05T04:32:46.230Z,43.12
2018-06-05T04:35:14.845Z,43.08
2018-06-05T04:37:43.390Z,42.77
2018-06-05T04:40:11.978Z,43.34
2018-06-05T04:42:40.625Z,43.38
2018-06-05T04:45:09.218Z,43.08
2018-06-05T04:47:37.792Z,42.90
2018-06-05T04:50:07.402Z,43.19
2018-06-05T04:52:36.038Z,43.55
2018-06-05T04:55:04.688Z,43.74
2018-06-05T04:57:33.353Z,43.36
2018-06-05T05:00:01.937Z,43.50
2018-06-05T05:02:30.622Z,43.32
2018-06-05T05:04:59.308Z,43.35
2018-06-05T05:07:27.888Z,43.17
2018-06-05T05:09:56.418Z,44.02
2018-06-05T05:12:25.053Z,42.23
2018-06-05T05:14:53.604Z,43.39
2018-06-05T05:17:22.162Z,42.95
2018-06-05T05:19:50.755Z,42.83
2018-06-05T05:22:19.385Z,42.92
2018-06-05T05:24:48.017Z,42.52
2018-06-05T05:27:16.655Z,42.68
2018-06-05T05:29:45.342Z,42.24
2018-06-05T05:32:13.963Z,41.45
2018-06-05T05:34:43.203Z,41.53
2018-06-05T05:37:11.754Z,41.22
2018-06-05T05:39:40.402Z,42.12
2018-06-05T05:42:08.994Z,40.96
2018-06-05T05:44:37.652Z,40.99
2018-06-05T05:47:06.593Z,41.46
2018-06-05T05:49:35.229Z,41.26
2018-06-05T05:52:03.911Z,40.70
2018-06-05T05:54:32.481Z,40.54
2018-06-05T05:57:01.079Z,40.50
2018-06-05T05:59:29.764Z,40.17
2018-06-05T06:01:58.257Z,39.83
2018-06-05T06:04:26.862Z,39.30
2018-06-05T06:06:55.400Z,38.76
2018-06-05T06:09:24.607Z,37.64
2018-06-05T06:11:53.225Z,39.07
2018-06-05T06:14:21.831Z,38.64
2018-06-05T06:16:50.366Z,38.99
2018-06-05T06:19:19.044Z,38.81
2018-06-05T06:21:47.624Z,38.14
2018-06-05T06:24:16.134Z,38.85
2018-06-05T06:26:44.791Z,38.18
2018-06-05T06:29:13.370Z,39.17
2018-06-05T06:31:42.002Z,39.15
2018-06-05T06:34:10.641Z,39.48
2018-06-05T06:36:39.163Z,39.87
2018-06-05T06:39:09.820Z,39.80
2018-06-05T06:41:39.206Z,39.38
2018-06-05T06:44:08.665Z,40.06
2018-06-05T06:46:38.718Z,39.39
2018-06-05T06:49:07.360Z,39.15
2018-06-05T06:51:35.914Z,39.14
2018-06-05T06:54:04.466Z,39.21
2018-06-05T06:56:33.061Z,38.87
2018-06-05T06:59:01.644Z,39.31
2018-06-05T07:01:30.376Z,39.74
2018-06-05T07:03:58.960Z,40.49
2018-06-05T07:06:27.542Z,40.83
2018-06-05T07:08:56.066Z,40.65
2018-06-05T07:11:24.754Z,40.47
2018-06-05T07:13:53.302Z,39.76
2018-06-05T07:16:21.878Z,38.48
2018-06-05T07:18:50.508Z,38.63
2018-06-05T07:21:19.859Z,39.20
2018-06-05T07:23:48.382Z,39.41
2018-06-05T07:26:17.024Z,38.56
2018-06-05T07:28:45.723Z,37.82
2018-06-05T07:31:14.338Z,36.52
2018-06-05T07:33:42.873Z,37.08
2018-06-05T07:36:11.563Z,36.80
2018-06-05T07:38:40.065Z,36.49
2018-06-05T07:41:08.728Z,35.68
2018-06-05T07:43:37.309Z,36.53
2018-06-05T07:46:05.877Z,35.48
2018-06-05T07:48:34.399Z,35.88
2018-06-05T07:51:04.231Z,34.67
2018-06-05T07:53:32.869Z,34.09
2018-06-05T07:56:01.554Z,33.68
2018-06-05T07:58:30.080Z,34.26
2018-06-05T08:00:58.619Z,34.27
2018-06-05T08:03:27.406Z,35.16
2018-06-05T08:05:58.143Z,35.53
2018-06-05T08:08:26.666Z,35.69
2018-06-05T08:10:55.202Z,35.26
2018-06-05T08:13:23.889Z,35.89
2018-06-05T08:15:52.415Z,34.34
2018-06-05T08:18:21.086Z,32.77
2018-06-05T08:20:49.582Z,33.83
2018-06-05T08:23:18.116Z,32.96
2018-06-05T08:25:46.646Z,33.75
2018-06-05T08:28:15.283Z,34.26
2018-06-05T08:30:44.738Z,31.83
2018-06-05T08:33:13.457Z,30.84
2018-06-05T08:35:42.061Z,30.71
2018-06-05T08:38:10.739Z,31.05
2018-06-05T08:40:39.424Z,31.64
2018-06-05T08:43:08.014Z,32.05
2018-06-05T08:45:36.622Z,32.18
2018-06-05T08:48:05.380Z,31.65
2018-06-05T08:50:33.962Z,32.50
2018-06-05T08:53:02.648Z,32.69
2018-06-05T08:55:31.228Z,32.79
2018-06-05T08:57:59.811Z,33.04
2018-06-05T09:00:28.866Z,32.01
2018-06-05T09:02:57.489Z,32.97
2018-06-05T09:05:26.227Z,31.89
2018-06-05T09:07:54.860Z,32.46
2018-06-05T09:10:24.365Z,32.69
2018-06-05T09:12:53.030Z,32.24
2018-06-05T09:15:21.634Z,32.43
2018-06-05T09:17:50.216Z,32.17
2018-06-05T09:20:18.920Z,32.24
2018-06-05T09:22:47.484Z,32.04
2018-06-05T09:25:16.071Z,31.98
2018-06-05T09:27:44.754Z,32.86
2018-06-05T09:30:13.341Z,33.14
2018-06-05T09:32:42.358Z,33.04
2018-06-05T09:35:11.542Z,33.35
2018-06-05T09:37:40.166Z,33.62
2018-06-05T09:40:08.791Z,32.97
2018-06-05T09:42:37.492Z,32.24
2018-06-05T09:45:06.094Z,31.21
2018-06-05T09:47:34.745Z,31.02
2018-06-05T09:50:03.431Z,30.62
2018-06-05T09:52:32.120Z,30.38
2018-06-05T09:55:00.803Z,29.49
2018-06-05T09:57:29.479Z,30.26
2018-06-05T09:59:58.069Z,30.44
2018-06-05T10:02:26.755Z,30.38
2018-06-05T10:04:55.279Z,29.59
2018-06-05T10:07:23.975Z,28.46
2018-06-05T10:09:52.559Z,28.96
2018-06-05T10:12:21.197Z,29.35
2018-06-05T10:14:49.874Z,29.50
2018-06-05T10:17:20.094Z,28.46
2018-06-05T10:19:48.780Z,29.49
2018-06-05T10:22:17.465Z,29.18
2018-06-05T10:24:45.946Z,28.59
2018-06-05T10:27:14.528Z,28.67
2018-06-05T10:29:43.213Z,28.31
2018-06-05T10:32:11.797Z,28.87
2018-06-05T10:34:40.516Z,29.19
2018-06-05T10:37:09.169Z,29.20
2018-06-05T10:39:38.250Z,29.22
2018-06-05T10:42:06.762Z,29.49
2018-06-05T10:44:35.427Z,28.86
2018-06-05T10:47:04.011Z,27.72
2018-06-05T10:49:32.510Z,28.76
2018-06-05T10:52:01.119Z,28.69
2018-06-05T10:54:29.759Z,29.83
2018-06-05T10:56:58.398Z,27.95
2018-06-05T10:59:27.068Z,28.76
2018-06-05T11:01:55.755Z,28.18
2018-06-05T11:04:24.391Z,28.15
2018-06-05T11:06:53.018Z,29.59
2018-06-05T11:09:21.665Z,28.20
2018-06-05T11:11:50.210Z,28.19
2018-06-05T11:14:18.832Z,28.18
2018-06-05T11:16:48.278Z,28.12
2018-06-05T11:19:16.863Z,28.22
2018-06-05T11:21:45.706Z,29.58
2018-06-05T11:24:14.191Z,28.31
2018-06-05T11:26:42.868Z,28.87
2018-06-05T11:29:11.557Z,28.53
2018-06-05T11:31:40.182Z,28.41
2018-06-05T11:34:08.730Z,27.28
2018-06-05T11:36:37.366Z,27.59
2018-06-05T11:39:08.262Z,27.09
2018-06-05T11:41:37.032Z,27.97
2018-06-05T11:44:05.716Z,27.65
2018-06-05T11:46:34.305Z,28.28
2018-06-05T11:49:02.985Z,28.04
2018-06-05T11:51:31.671Z,27.49
2018-06-05T11:54:00.185Z,27.64
2018-06-05T11:56:28.940Z,27.70
2018-06-05T11:58:57.830Z,27.27
2018-06-05T12:01:26.824Z,26.72
2018-06-05T12:03:56.624Z,28.04
2018-06-05T12:06:25.230Z,27.62
2018-06-05T12:08:53.741Z,27.01
2018-06-05T12:11:22.411Z,27.63
2018-06-05T12:13:51.067Z,28.87
2018-06-05T12:16:19.651Z,27.41
2018-06-05T12:18:49.202Z,28.30
2018-06-05T12:21:17.794Z,28.44
2018-06-05T12:23:46.385Z,28.08
2018-06-05T12:26:14.987Z,27.54
2018-06-05T12:28:43.690Z,27.91
2018-06-05T12:31:13.331Z,28.05
2018-06-05T12:33:41.984Z,28.17
2018-06-05T12:36:10.582Z,28.44
2018-06-05T12:38:39.245Z,27.79
2018-06-05T12:41:07.882Z,28.35
2018-06-05T12:43:36.431Z,27.75
2018-06-05T12:46:05.107Z,27.89
2018-06-05T12:48:33.738Z,27.55
2018-06-05T12:51:02.370Z,27.06
2018-06-05T12:53:30.866Z,28.17
2018-06-05T12:56:00.206Z,28.04
2018-06-05T12:58:31.327Z,28.07
2018-06-05T13:00:59.978Z,26.73
2018-06-05T13:03:28.769Z,27.39
2018-06-05T13:05:58.931Z,27.60
2018-06-05T13:08:27.472Z,28.06
2018-06-05T13:10:56.154Z,28.69
2018-06-05T13:13:24.664Z,26.84
2018-06-05T13:15:53.319Z,26.69
2018-06-05T13:18:21.905Z,26.80
2018-06-05T13:20:50.546Z,27.08
2018-06-05T13:23:19.274Z,26.64
2018-06-05T13:25:47.878Z,26.87
2018-06-05T13:28:16.486Z,27.24
2018-06-05T13:30:45.124Z,27.40
2018-06-05T13:33:13.806Z,27.07
2018-06-05T13:35:42.962Z,26.68
2018-06-05T13:38:11.571Z,27.00
2018-06-05T13:40:40.477Z,26.72
2018-06-05T13:43:09.173Z,26.03
2018-06-05T13:45:37.848Z,25.94
2018-06-05T13:48:06.369Z,26.27
2018-06-05T13:50:35.014Z,26.31
2018-06-05T13:53:03.514Z,25.85
2018-06-05T13:55:34.174Z,26.08
2018-06-05T13:58:02.758Z,25.30
2018-06-05T14:00:31.395Z,25.05
2018-06-05T14:02:59.935Z,24.58
2018-06-05T14:05:28.798Z,24.89
2018-06-05T14:07:57.449Z,25.78
2018-06-05T14:10:26.020Z,24.23
2018-06-05T14:12:54.688Z,25.81
2018-06-05T14:15:23.214Z,24.34
2018-06-05T14:17:51.781Z,23.84
2018-06-05T14:20:20.973Z,24.69
2018-06-05T14:22:49.609Z,24.07
2018-06-05T14:25:18.195Z,22.92
2018-06-05T14:27:46.830Z,23.35
2018-06-05T14:30:15.916Z,24.81
2018-06-05T14:32:44.551Z,23.43
2018-06-05T14:35:13.627Z,23.12
2018-06-05T14:37:42.139Z,24.05
2018-06-05T14:40:10.868Z,24.23
2018-06-05T14:42:39.492Z,23.53
2018-06-05T14:45:09.103Z,23.03
2018-06-05T14:47:37.743Z,23.23
2018-06-05T14:50:06.282Z,22.84
2018-06-05T14:52:35.011Z,21.95
2018-06-05T14:55:03.594Z,23.36
2018-06-05T14:57:32.186Z,23.59
2018-06-05T15:00:00.793Z,23.96
2018-06-05T15:02:30.245Z,24.67
2018-06-05T15:04:58.902Z,22.54
2018-06-05T15:07:27.533Z,23.59
2018-06-05T15:09:56.218Z,22.80
2018-06-05T15:12:25.108Z,23.27
2018-06-05T15:14:54.246Z,23.28
2018-06-05T15:17:22.787Z,23.23
2018-06-05T15:19:51.453Z,22.81
2018-06-05T15:22:23.243Z,22.58
2018-06-05T15:24:52.528Z,23.53
2018-06-05T15:27:22.237Z,22.96
2018-06-05T15:29:52.355Z,22.69
2018-06-05T15:32:20.970Z,24.43
2018-06-05T15:34:49.585Z,23.69
2018-06-05T15:37:18.103Z,23.43
2018-06-05T15:39:47.109Z,23.90
2018-06-05T15:42:15.884Z,22.71
2018-06-05T15:44:44.483Z,22.28
2018-06-05T15:47:13.972Z,23.04
2018-06-05T15:49:42.570Z,22.69
2018-06-05T15:52:11.157Z,23.71
2018-06-05T15:54:41.030Z,23.41
2018-06-05T15:57:11.752Z,24.07
2018-06-05T15:59:40.266Z,23.35
2018-06-05T16:02:08.852Z,23.75
2018-06-05T16:04:37.469Z,23.73
2018-06-05T16:07:07.022Z,23.50
2018-06-05T16:09:35.722Z,23.59
2018-06-05T16:12:04.859Z,23.81
2018-06-05T16:14:33.530Z,24.65
2018-06-05T16:17:02.085Z,24.37
2018-06-05T16:19:31.386Z,23.89
2018-06-05T16:22:01.305Z,23.24
2018-06-05T16:24:29.985Z,23.56
2018-06-05T16:26:58.598Z,23.55
2018-06-05T16:29:27.355Z,23.73
2018-06-05T16:31:56.706Z,23.75
2018-06-05T16:34:26.062Z,23.33
2018-06-05T16:36:54.698Z,22.97
2018-06-05T16:39:23.790Z,23.98
2018-06-05T16:41:52.420Z,22.73
2018-06-05T16:44:21.412Z,23.01
2018-06-05T16:46:50.682Z,23.86
2018-06-05T16:49:19.296Z,24.22
2018-06-05T16:51:48.083Z,24.42
2018-06-05T16:54:16.758Z,23.54
2018-06-05T16:56:46.007Z,23.97
2018-06-05T16:59:14.698Z,23.90
2018-06-05T17:01:43.811Z,23.45
2018-06-05T17:04:12.364Z,23.41
2018-06-05T17:06:41.227Z,23.89
2018-06-05T17:09:10.005Z,23.81
2018-06-05T17:11:39.203Z,24.30
2018-06-05T17:14:09.082Z,25.00
2018-06-05T17:16:37.638Z,25.19
2018-06-05T17:19:06.283Z,24.79
2018-06-05T17:21:34.968Z,24.58
2018-06-05T17:24:03.552Z,24.75
2018-06-05T17:26:32.123Z,24.91
2018-06-05T17:29:00.655Z,25.07
2018-06-05T17:31:29.299Z,24.59
2018-06-05T17:33:57.882Z,24.49
2018-06-05T17:36:26.895Z,23.84
2018-06-05T17:38:55.479Z,24.17
2018-06-05T17:41:24.086Z,25.40
2018-06-05T17:43:52.649Z,25.12
2018-06-05T17:46:21.269Z,24.35
2018-06-05T17:48:49.802Z,24.21
2018-06-05T17:51:18.475Z,24.71
2018-06-05T17:53:47.087Z,25.23
2018-06-05T17:56:16.587Z,25.24
2018-06-05T17:58:45.073Z,25.23
2018-06-05T18:01:13.727Z,25.69
2018-06-05T18:03:43.029Z,25.53
2018-06-05T18:06:11.638Z,26.06
2018-06-05T18:08:40.263Z,26.11
2018-06-05T18:11:09.030Z,26.61
2018-06-05T18:13:37.667Z,26.65
2018-06-05T18:16:06.414Z,26.87
2018-06-05T18:18:35.038Z,26.40
2018-06-05T18:21:03.748Z,26.36
2018-06-05T18:23:32.272Z,27.04
2018-06-05T18:26:00.856Z,27.34
2018-06-05T18:28:30.290Z,27.49
2018-06-05T18:30:58.959Z,27.38
2018-06-05T18:33:28.917Z,27.45
2018-06-05T18:35:57.511Z,27.64
2018-06-05T18:38:26.573Z,27.75
2018-06-05T18:40:55.143Z,27.92
2018-06-05T18:43:23.692Z,28.36
2018-06-05T18:45:52.261Z,28.12
2018-06-05T18:48:20.904Z,28.10
2018-06-05T18:50:50.235Z,28.52
2018-06-05T18:53:18.882Z,28.70
2018-06-05T18:55:47.386Z,28.78
2018-06-05T18:58:16.007Z,28.69
2018-06-05T19:00:44.622Z,29.09
2018-06-05T19:03:13.315Z,29.53
2018-06-05T19:05:41.844Z,29.25
2018-06-05T19:08:10.480Z,29.74
2018-06-05T19:10:39.110Z,29.37
2018-06-05T19:13:07.651Z,29.78
2018-06-05T19:15:36.261Z,29.59
2018-06-05T19:18:04.914Z,30.63
2018-06-05T19:20:33.492Z,30.88
2018-06-05T19:23:03.765Z,30.37
2018-06-05T19:25:32.359Z,31.04
2018-06-05T19:28:01.000Z,31.58
2018-06-05T19:30:29.626Z,31.64
2018-06-05T19:32:58.219Z,32.04
2018-06-05T19:35:26.794Z,31.73
2018-06-05T19:37:55.348Z,32.39
2018-06-05T19:40:23.874Z,31.94
2018-06-05T19:42:53.200Z,32.63
2018-06-05T19:45:21.785Z,32.49
2018-06-05T19:47:50.314Z,32.86
2018-06-05T19:50:18.955Z,32.30
2018-06-05T19:52:47.637Z,32.96
2018-06-05T19:55:16.219Z,33.08
2018-06-05T19:57:44.903Z,33.38
2018-06-05T20:00:13.399Z,32.93
2018-06-05T20:02:42.040Z,33.63
2018-06-05T20:05:10.836Z,33.90
2018-06-05T20:07:39.362Z,33.91
2018-06-05T20:10:07.986Z,34.09
2018-06-05T20:12:36.605Z,34.14
2018-06-05T20:15:05.214Z,34.10
2018-06-05T20:17:33.914Z,34.53
2018-06-05T20:20:03.229Z,34.62
2018-06-05T20:22:31.897Z,35.85
2018-06-05T20:25:01.157Z,35.65
2018-06-05T20:27:29.783Z,35.27
2018-06-05T20:29:58.425Z,35.86
2018-06-05T20:32:27.011Z,36.21
2018-06-05T20:34:55.591Z,35.84
2018-06-05T20:37:24.246Z,36.58
2018-06-05T20:39:52.796Z,37.16
2018-06-05T20:42:21.387Z,37.03
2018-06-05T20:44:50.027Z,37.76
2018-06-05T20:47:18.551Z,38.11
2018-06-05T20:49:47.191Z,37.73
2018-06-05T20:52:16.714Z,37.85
2018-06-05T20:54:45.948Z,38.49
2018-06-05T20:57:14.579Z,38.19
2018-06-05T20:59:43.189Z,38.78
2018-06-05T21:02:11.742Z,38.50
2018-06-05T21:04:40.329Z,38.66
2018-06-05T21:07:09.116Z,39.65
2018-06-05T21:09:37.642Z,38.80
2018-06-05T21:12:06.195Z,39.51
2018-06-05T21:14:34.791Z,40.09
2018-06-05T21:17:04.306Z,40.09
2018-06-05T21:19:32.950Z,40.34
2018-06-05T21:22:01.533Z,40.80
2018-06-05T21:24:30.110Z,40.87
2018-06-05T21:26:58.644Z,41.17
2018-06-05T21:29:27.232Z,41.40
2018-06-05T21:31:55.807Z,41.41
2018-06-05T21:34:24.906Z,42.01
2018-06-05T21:36:53.492Z,42.44
2018-06-05T21:39:22.078Z,42.68
2018-06-05T21:41:50.709Z,43.56
2018-06-05T21:44:19.207Z,43.28
2018-06-05T21:46:48.422Z,43.43
2018-06-05T21:49:17.172Z,44.30
2018-06-05T21:51:45.798Z,44.84
2018-06-05T21:54:14.301Z,44.45
2018-06-05T21:56:42.850Z,44.22
2018-06-05T21:59:11.428Z,45.35
2018-06-05T22:01:39.910Z,45.12
2018-06-05T22:04:08.587Z,45.67
2018-06-05T22:06:37.255Z,44.98
2018-06-05T22:09:08.522Z,44.80
2018-06-05T22:11:37.289Z,44.03
2018-06-05T22:14:05.890Z,45.18
2018-06-05T22:16:34.379Z,44.17
2018-06-05T22:19:03.037Z,42.99
2018-06-05T22:21:31.598Z,42.46
2018-06-05T22:24:00.306Z,41.74
2018-06-05T22:26:28.794Z,40.63
2018-06-05T22:28:57.422Z,40.65
2018-06-05T22:31:26.069Z,40.48
2018-06-05T22:33:54.659Z,40.05
2018-06-05T22:36:23.277Z,40.23
2018-06-05T22:38:52.421Z,40.20
2018-06-05T22:41:21.168Z,39.44
2018-06-05T22:43:49.783Z,39.61
2018-06-05T22:46:18.302Z,39.15
2018-06-05T22:48:46.950Z,38.97
2018-06-05T22:51:15.738Z,39.38
2018-06-05T22:53:44.240Z,39.37
2018-06-05T22:56:12.861Z,38.69
2018-06-05T22:58:41.437Z,39.15
2018-06-05T23:01:10.072Z,38.80
2018-06-05T23:03:38.656Z,38.59
2018-06-05T23:06:07.339Z,38.60
2018-06-05T23:08:36.022Z,38.87
2018-06-05T23:11:04.550Z,38.25
2018-06-05T23:13:33.189Z,38.79
2018-06-05T23:16:01.771Z,38.67
2018-06-05T23:18:30.345Z,38.69
2018-06-05T23:20:58.982Z,38.49
2018-06-05T23:23:27.621Z,38.62
2018-06-05T23:25:56.233Z,38.45
2018-06-05T23:28:24.842Z,38.53
2018-06-05T23:30:53.394Z,38.55
2018-06-05T23:33:21.986Z,38.63
2018-06-05T23:35:50.762Z,38.45
2018-06-05T23:38:19.384Z,38.75
2018-06-05T23:40:47.935Z,38.27
2018-06-05T23:43:16.591Z,38.33
2018-06-05T23:45:45.276Z,38.68
2018-06-05T23:48:13.871Z,38.81
2018-06-05T23:50:42.362Z,38.48
2018-06-05T23:53:11.025Z,38.97
2018-06-05T23:55:39.608Z,39.12
2018-06-05T23:58:08.190Z,38.78
